sensor_id;sensor_type;location;lat;lon;timestamp;P1;durP1;ratioP1;P2;durP2;ratioP2
13374;SDS011;6756;51.354;15.754;2022-09-09T00:09:47;2.33;;;2.03;;
13374;SDS011;6756;51.354;15.754;2022-09-09T00:13:53;2.33;;;2.13;;
13374;SDS011;6756;51.354;15.754;2022-09-09T00:22:15;2.03;;;1.83;;
13374;SDS011;6756;51.354;15.754;2022-09-09T00:30:45;2.40;;;1.80;;
13374;SDS011;6756;51.354;15.754;2022-09-09T00:39:01;2.00;;;1.70;;
13374;SDS011;6756;51.354;15.754;2022-09-09T00:51:21;2.10;;;1.90;;
13374;SDS011;6756;51.354;15.754;2022-09-09T00:55:41;2.97;;;1.87;;
13374;SDS011;6756;51.354;15.754;2022-09-09T00:59:50;2.53;;;2.07;;
13374;SDS011;6756;51.354;15.754;2022-09-09T01:03:57;2.50;;;1.97;;
13374;SDS011;6756;51.354;15.754;2022-09-09T01:08:03;2.10;;;1.90;;
13374;SDS011;6756;51.354;15.754;2022-09-09T01:12:23;4.20;;;2.33;;
13374;SDS011;6756;51.354;15.754;2022-09-09T01:16:47;2.30;;;2.10;;
13374;SDS011;6756;51.354;15.754;2022-09-09T01:25:28;2.43;;;2.23;;
13374;SDS011;6756;51.354;15.754;2022-09-09T01:29:49;3.43;;;2.23;;
13374;SDS011;6756;51.354;15.754;2022-09-09T01:33:50;2.50;;;2.30;;
13374;SDS011;6756;51.354;15.754;2022-09-09T01:37:51;2.83;;;2.60;;
13374;SDS011;6756;51.354;15.754;2022-09-09T01:41:52;3.43;;;2.40;;
13374;SDS011;6756;51.354;15.754;2022-09-09T01:45:55;3.53;;;2.47;;
13374;SDS011;6756;51.354;15.754;2022-09-09T01:49:59;2.37;;;2.17;;
13374;SDS011;6756;51.354;15.754;2022-09-09T01:54:01;3.87;;;2.10;;
13374;SDS011;6756;51.354;15.754;2022-09-09T02:07:03;2.00;;;1.83;;
13374;SDS011;6756;51.354;15.754;2022-09-09T02:11:27;2.17;;;1.97;;
13374;SDS011;6756;51.354;15.754;2022-09-09T02:19:34;2.20;;;2.00;;
13374;SDS011;6756;51.354;15.754;2022-09-09T02:23:40;1.90;;;1.80;;
13374;SDS011;6756;51.354;15.754;2022-09-09T02:27:43;2.40;;;1.90;;
13374;SDS011;6756;51.354;15.754;2022-09-09T02:31:46;1.70;;;1.60;;
13374;SDS011;6756;51.354;15.754;2022-09-09T02:35:49;1.90;;;1.70;;
13374;SDS011;6756;51.354;15.754;2022-09-09T02:39:52;2.87;;;2.00;;
13374;SDS011;6756;51.354;15.754;2022-09-09T02:43:53;1.80;;;1.70;;
13374;SDS011;6756;51.354;15.754;2022-09-09T02:52:21;2.13;;;1.83;;
13374;SDS011;6756;51.354;15.754;2022-09-09T02:56:30;1.47;;;1.37;;
13374;SDS011;6756;51.354;15.754;2022-09-09T03:00:33;1.70;;;1.60;;
13374;SDS011;6756;51.354;15.754;2022-09-09T03:04:39;1.87;;;1.77;;
13374;SDS011;6756;51.354;15.754;2022-09-09T03:08:43;1.53;;;1.43;;
13374;SDS011;6756;51.354;15.754;2022-09-09T03:12:44;2.07;;;1.60;;
13374;SDS011;6756;51.354;15.754;2022-09-09T03:16:45;2.57;;;1.70;;
13374;SDS011;6756;51.354;15.754;2022-09-09T03:20:46;2.07;;;1.97;;
13374;SDS011;6756;51.354;15.754;2022-09-09T03:24:51;1.80;;;1.37;;
13374;SDS011;6756;51.354;15.754;2022-09-09T03:28:52;2.90;;;1.40;;
13374;SDS011;6756;51.354;15.754;2022-09-09T03:32:54;1.57;;;1.47;;
13374;SDS011;6756;51.354;15.754;2022-09-09T03:36:57;2.60;;;1.40;;
13374;SDS011;6756;51.354;15.754;2022-09-09T03:40:58;2.03;;;1.60;;
13374;SDS011;6756;51.354;15.754;2022-09-09T03:45:01;2.43;;;1.50;;
13374;SDS011;6756;51.354;15.754;2022-09-09T03:49:03;1.73;;;1.57;;
13374;SDS011;6756;51.354;15.754;2022-09-09T03:53:04;2.03;;;1.47;;
13374;SDS011;6756;51.354;15.754;2022-09-09T03:57:06;3.00;;;1.70;;
13374;SDS011;6756;51.354;15.754;2022-09-09T04:01:08;2.70;;;1.80;;
13374;SDS011;6756;51.354;15.754;2022-09-09T04:05:10;1.67;;;1.57;;
13374;SDS011;6756;51.354;15.754;2022-09-09T04:09:11;2.33;;;1.70;;
13374;SDS011;6756;51.354;15.754;2022-09-09T04:13:12;1.87;;;1.60;;
13374;SDS011;6756;51.354;15.754;2022-09-09T04:17:15;3.23;;;1.70;;
13374;SDS011;6756;51.354;15.754;2022-09-09T04:21:16;1.90;;;1.80;;
13374;SDS011;6756;51.354;15.754;2022-09-09T04:25:17;1.50;;;1.40;;
13374;SDS011;6756;51.354;15.754;2022-09-09T04:29:18;1.80;;;1.70;;
13374;SDS011;6756;51.354;15.754;2022-09-09T04:33:19;2.20;;;1.87;;
13374;SDS011;6756;51.354;15.754;2022-09-09T04:37:20;2.03;;;1.40;;
13374;SDS011;6756;51.354;15.754;2022-09-09T04:41:20;2.60;;;1.50;;
13374;SDS011;6756;51.354;15.754;2022-09-09T04:45:21;1.70;;;1.50;;
13374;SDS011;6756;51.354;15.754;2022-09-09T04:49:22;2.13;;;1.67;;
13374;SDS011;6756;51.354;15.754;2022-09-09T04:53:23;2.30;;;1.70;;
13374;SDS011;6756;51.354;15.754;2022-09-09T04:57:25;2.23;;;1.60;;
13374;SDS011;6756;51.354;15.754;2022-09-09T05:01:26;1.90;;;1.43;;
13374;SDS011;6756;51.354;15.754;2022-09-09T05:05:27;3.00;;;1.40;;
13374;SDS011;6756;51.354;15.754;2022-09-09T05:09:28;3.80;;;1.80;;
13374;SDS011;6756;51.354;15.754;2022-09-09T05:13:30;1.40;;;1.30;;
13374;SDS011;6756;51.354;15.754;2022-09-09T05:17:31;1.83;;;1.53;;
13374;SDS011;6756;51.354;15.754;2022-09-09T05:21:34;2.13;;;1.40;;
13374;SDS011;6756;51.354;15.754;2022-09-09T05:25:34;1.83;;;1.27;;
13374;SDS011;6756;51.354;15.754;2022-09-09T05:29:35;1.60;;;1.50;;
13374;SDS011;6756;51.354;15.754;2022-09-09T05:33:36;1.20;;;0.90;;
13374;SDS011;6756;51.354;15.754;2022-09-09T05:37:37;1.17;;;0.97;;
13374;SDS011;6756;51.354;15.754;2022-09-09T05:41:38;2.10;;;1.00;;
13374;SDS011;6756;51.354;15.754;2022-09-09T05:45:39;2.07;;;1.23;;
13374;SDS011;6756;51.354;15.754;2022-09-09T05:49:40;2.20;;;1.00;;
13374;SDS011;6756;51.354;15.754;2022-09-09T05:53:41;2.33;;;0.90;;
13374;SDS011;6756;51.354;15.754;2022-09-09T05:57:47;2.70;;;0.90;;
13374;SDS011;6756;51.354;15.754;2022-09-09T06:01:49;3.90;;;1.20;;
13374;SDS011;6756;51.354;15.754;2022-09-09T06:05:56;1.20;;;0.90;;
13374;SDS011;6756;51.354;15.754;2022-09-09T06:09:58;1.10;;;0.70;;
13374;SDS011;6756;51.354;15.754;2022-09-09T06:13:59;2.40;;;1.10;;
13374;SDS011;6756;51.354;15.754;2022-09-09T06:18:00;1.40;;;0.73;;
13374;SDS011;6756;51.354;15.754;2022-09-09T06:22:01;1.57;;;0.90;;
13374;SDS011;6756;51.354;15.754;2022-09-09T06:26:03;1.40;;;0.73;;
13374;SDS011;6756;51.354;15.754;2022-09-09T06:30:10;2.93;;;0.83;;
13374;SDS011;6756;51.354;15.754;2022-09-09T06:34:11;2.03;;;0.80;;
13374;SDS011;6756;51.354;15.754;2022-09-09T06:38:12;2.87;;;0.83;;
13374;SDS011;6756;51.354;15.754;2022-09-09T06:42:12;1.17;;;0.57;;
13374;SDS011;6756;51.354;15.754;2022-09-09T06:46:17;1.07;;;0.77;;
13374;SDS011;6756;51.354;15.754;2022-09-09T06:50:22;1.80;;;0.93;;
13374;SDS011;6756;51.354;15.754;2022-09-09T06:54:24;1.43;;;0.80;;
13374;SDS011;6756;51.354;15.754;2022-09-09T06:58:25;3.60;;;0.80;;
13374;SDS011;6756;51.354;15.754;2022-09-09T07:02:26;3.40;;;1.00;;
13374;SDS011;6756;51.354;15.754;2022-09-09T07:06:30;1.03;;;0.70;;
13374;SDS011;6756;51.354;15.754;2022-09-09T07:10:32;3.60;;;0.90;;
13374;SDS011;6756;51.354;15.754;2022-09-09T07:14:34;2.53;;;0.90;;
13374;SDS011;6756;51.354;15.754;2022-09-09T07:18:37;2.83;;;1.00;;
13374;SDS011;6756;51.354;15.754;2022-09-09T07:22:39;1.40;;;0.83;;
13374;SDS011;6756;51.354;15.754;2022-09-09T07:26:40;1.57;;;0.80;;
13374;SDS011;6756;51.354;15.754;2022-09-09T07:30:41;3.63;;;0.90;;
13374;SDS011;6756;51.354;15.754;2022-09-09T07:34:42;1.90;;;0.93;;
13374;SDS011;6756;51.354;15.754;2022-09-09T07:38:47;3.00;;;0.80;;
13374;SDS011;6756;51.354;15.754;2022-09-09T07:43:08;2.83;;;0.80;;
13374;SDS011;6756;51.354;15.754;2022-09-09T07:47:09;2.43;;;0.70;;
13374;SDS011;6756;51.354;15.754;2022-09-09T07:51:13;1.67;;;0.60;;
13374;SDS011;6756;51.354;15.754;2022-09-09T07:55:20;2.30;;;0.70;;
13374;SDS011;6756;51.354;15.754;2022-09-09T07:59:21;3.63;;;1.17;;
13374;SDS011;6756;51.354;15.754;2022-09-09T08:03:22;1.37;;;0.67;;
13374;SDS011;6756;51.354;15.754;2022-09-09T08:07:23;1.63;;;0.73;;
13374;SDS011;6756;51.354;15.754;2022-09-09T08:11:25;1.37;;;0.57;;
13374;SDS011;6756;51.354;15.754;2022-09-09T08:15:28;1.80;;;0.70;;
13374;SDS011;6756;51.354;15.754;2022-09-09T08:19:31;2.73;;;0.60;;
13374;SDS011;6756;51.354;15.754;2022-09-09T08:23:35;2.43;;;0.60;;
13374;SDS011;6756;51.354;15.754;2022-09-09T08:27:36;3.10;;;0.60;;
13374;SDS011;6756;51.354;15.754;2022-09-09T08:31:38;1.23;;;0.40;;
13374;SDS011;6756;51.354;15.754;2022-09-09T08:35:49;1.93;;;0.70;;
13374;SDS011;6756;51.354;15.754;2022-09-09T08:39:50;1.90;;;0.57;;
13374;SDS011;6756;51.354;15.754;2022-09-09T08:43:52;1.93;;;0.47;;
13374;SDS011;6756;51.354;15.754;2022-09-09T08:57:02;3.47;;;1.10;;
13374;SDS011;6756;51.354;15.754;2022-09-09T09:09:36;2.23;;;0.50;;
13374;SDS011;6756;51.354;15.754;2022-09-09T09:13:45;2.50;;;0.73;;
13374;SDS011;6756;51.354;15.754;2022-09-09T09:17:51;3.87;;;0.80;;
13374;SDS011;6756;51.354;15.754;2022-09-09T09:26:23;2.67;;;0.77;;
13374;SDS011;6756;51.354;15.754;2022-09-09T09:30:40;1.83;;;0.73;;
13374;SDS011;6756;51.354;15.754;2022-09-09T09:35:06;2.40;;;0.70;;
13374;SDS011;6756;51.354;15.754;2022-09-09T09:47:31;1.37;;;0.57;;
13374;SDS011;6756;51.354;15.754;2022-09-09T09:51:32;1.93;;;0.50;;
13374;SDS011;6756;51.354;15.754;2022-09-09T09:55:35;1.83;;;0.60;;
13374;SDS011;6756;51.354;15.754;2022-09-09T09:59:44;1.90;;;0.40;;
13374;SDS011;6756;51.354;15.754;2022-09-09T10:03:50;1.93;;;0.40;;
13374;SDS011;6756;51.354;15.754;2022-09-09T10:38:17;1.10;;;0.50;;
13374;SDS011;6756;51.354;15.754;2022-09-09T10:42:23;1.90;;;0.33;;
13374;SDS011;6756;51.354;15.754;2022-09-09T10:50:50;2.97;;;0.53;;
13374;SDS011;6756;51.354;15.754;2022-09-09T10:55:19;3.00;;;0.50;;
13374;SDS011;6756;51.354;15.754;2022-09-09T10:59:26;1.13;;;0.30;;
13374;SDS011;6756;51.354;15.754;2022-09-09T11:03:33;2.23;;;0.60;;
13374;SDS011;6756;51.354;15.754;2022-09-09T11:07:44;0.95;;;0.50;;
13374;SDS011;6756;51.354;15.754;2022-09-09T11:11:53;2.20;;;0.32;;
13374;SDS011;6756;51.354;15.754;2022-09-09T11:15:58;2.28;;;0.50;;
13374;SDS011;6756;51.354;15.754;2022-09-09T11:20:18;2.05;;;0.50;;
13374;SDS011;6756;51.354;15.754;2022-09-09T11:41:19;3.85;;;0.70;;
13374;SDS011;6756;51.354;15.754;2022-09-09T11:45:24;1.00;;;0.45;;
13374;SDS011;6756;51.354;15.754;2022-09-09T11:49:40;1.88;;;0.50;;
13374;SDS011;6756;51.354;15.754;2022-09-09T11:53:56;3.75;;;0.70;;
13374;SDS011;6756;51.354;15.754;2022-09-09T11:58:03;1.42;;;0.50;;
13374;SDS011;6756;51.354;15.754;2022-09-09T12:02:14;1.85;;;0.70;;
13374;SDS011;6756;51.354;15.754;2022-09-09T12:06:33;1.40;;;0.50;;
13374;SDS011;6756;51.354;15.754;2022-09-09T12:10:53;5.60;;;0.77;;
13374;SDS011;6756;51.354;15.754;2022-09-09T12:19:03;1.13;;;0.55;;
13374;SDS011;6756;51.354;15.754;2022-09-09T12:23:19;1.63;;;0.65;;
13374;SDS011;6756;51.354;15.754;2022-09-09T12:27:40;2.72;;;0.90;;
13374;SDS011;6756;51.354;15.754;2022-09-09T12:31:53;1.88;;;0.60;;
13374;SDS011;6756;51.354;15.754;2022-09-09T12:35:57;2.20;;;0.57;;
13374;SDS011;6756;51.354;15.754;2022-09-09T12:40:02;4.60;;;0.50;;
13374;SDS011;6756;51.354;15.754;2022-09-09T12:44:05;0.70;;;0.50;;
13374;SDS011;6756;51.354;15.754;2022-09-09T12:48:09;2.40;;;0.50;;
13374;SDS011;6756;51.354;15.754;2022-09-09T12:52:18;2.03;;;0.60;;
13374;SDS011;6756;51.354;15.754;2022-09-09T12:56:30;1.90;;;0.47;;
13374;SDS011;6756;51.354;15.754;2022-09-09T13:00:33;2.30;;;0.60;;
13374;SDS011;6756;51.354;15.754;2022-09-09T13:04:34;2.63;;;0.50;;
13374;SDS011;6756;51.354;15.754;2022-09-09T13:08:35;0.60;;;0.27;;
13374;SDS011;6756;51.354;15.754;2022-09-09T13:12:36;2.17;;;0.50;;
13374;SDS011;6756;51.354;15.754;2022-09-09T13:16:37;1.17;;;0.43;;
13374;SDS011;6756;51.354;15.754;2022-09-09T13:20:39;1.07;;;0.40;;
13374;SDS011;6756;51.354;15.754;2022-09-09T13:24:47;0.57;;;0.30;;
13374;SDS011;6756;51.354;15.754;2022-09-09T13:29:17;1.17;;;0.20;;
13374;SDS011;6756;51.354;15.754;2022-09-09T13:33:20;2.67;;;1.30;;
13374;SDS011;6756;51.354;15.754;2022-09-09T13:37:28;1.83;;;0.87;;
13374;SDS011;6756;51.354;15.754;2022-09-09T13:41:43;0.80;;;0.40;;
13374;SDS011;6756;51.354;15.754;2022-09-09T13:45:52;1.00;;;0.40;;
13374;SDS011;6756;51.354;15.754;2022-09-09T13:50:18;2.97;;;0.40;;
13374;SDS011;6756;51.354;15.754;2022-09-09T13:54:21;2.67;;;0.60;;
13374;SDS011;6756;51.354;15.754;2022-09-09T13:58:22;1.43;;;0.33;;
13374;SDS011;6756;51.354;15.754;2022-09-09T14:02:25;1.37;;;0.30;;
13374;SDS011;6756;51.354;15.754;2022-09-09T14:06:25;1.07;;;0.43;;
13374;SDS011;6756;51.354;15.754;2022-09-09T14:10:27;1.43;;;0.50;;
13374;SDS011;6756;51.354;15.754;2022-09-09T14:14:28;1.13;;;0.40;;
13374;SDS011;6756;51.354;15.754;2022-09-09T14:18:29;0.70;;;0.50;;
13374;SDS011;6756;51.354;15.754;2022-09-09T14:22:29;0.70;;;0.47;;
13374;SDS011;6756;51.354;15.754;2022-09-09T14:26:30;1.33;;;0.40;;
13374;SDS011;6756;51.354;15.754;2022-09-09T14:30:32;0.60;;;0.20;;
13374;SDS011;6756;51.354;15.754;2022-09-09T14:34:32;0.60;;;0.30;;
13374;SDS011;6756;51.354;15.754;2022-09-09T14:38:34;1.33;;;0.20;;
13374;SDS011;6756;51.354;15.754;2022-09-09T14:42:39;2.43;;;0.30;;
13374;SDS011;6756;51.354;15.754;2022-09-09T14:46:41;0.83;;;0.20;;
13374;SDS011;6756;51.354;15.754;2022-09-09T14:50:45;0.93;;;0.30;;
13374;SDS011;6756;51.354;15.754;2022-09-09T14:54:46;1.03;;;0.20;;
13374;SDS011;6756;51.354;15.754;2022-09-09T14:58:46;3.33;;;0.70;;
13374;SDS011;6756;51.354;15.754;2022-09-09T15:02:51;1.67;;;0.70;;
13374;SDS011;6756;51.354;15.754;2022-09-09T15:06:53;1.07;;;0.30;;
13374;SDS011;6756;51.354;15.754;2022-09-09T15:11:03;2.97;;;0.43;;
13374;SDS011;6756;51.354;15.754;2022-09-09T15:15:05;0.40;;;0.30;;
13374;SDS011;6756;51.354;15.754;2022-09-09T15:19:06;0.60;;;0.40;;
13374;SDS011;6756;51.354;15.754;2022-09-09T15:23:07;0.73;;;0.43;;
13374;SDS011;6756;51.354;15.754;2022-09-09T15:27:09;0.90;;;0.60;;
13374;SDS011;6756;51.354;15.754;2022-09-09T15:35:21;3.57;;;0.67;;
13374;SDS011;6756;51.354;15.754;2022-09-09T15:39:22;2.87;;;1.00;;
13374;SDS011;6756;51.354;15.754;2022-09-09T15:43:22;0.80;;;0.40;;
13374;SDS011;6756;51.354;15.754;2022-09-09T15:47:23;1.53;;;0.50;;
13374;SDS011;6756;51.354;15.754;2022-09-09T15:51:24;0.63;;;0.40;;
13374;SDS011;6756;51.354;15.754;2022-09-09T15:55:25;0.50;;;0.30;;
13374;SDS011;6756;51.354;15.754;2022-09-09T15:59:27;1.33;;;0.50;;
13374;SDS011;6756;51.354;15.754;2022-09-09T16:03:33;1.10;;;0.50;;
13374;SDS011;6756;51.354;15.754;2022-09-09T16:07:38;1.10;;;0.80;;
13374;SDS011;6756;51.354;15.754;2022-09-09T16:11:39;1.67;;;1.10;;
13374;SDS011;6756;51.354;15.754;2022-09-09T16:15:40;1.33;;;0.70;;
13374;SDS011;6756;51.354;15.754;2022-09-09T16:19:41;2.63;;;0.80;;
13374;SDS011;6756;51.354;15.754;2022-09-09T16:23:42;1.00;;;0.53;;
13374;SDS011;6756;51.354;15.754;2022-09-09T16:27:44;1.53;;;0.73;;
13374;SDS011;6756;51.354;15.754;2022-09-09T16:31:45;1.93;;;0.90;;
13374;SDS011;6756;51.354;15.754;2022-09-09T16:35:46;1.30;;;0.70;;
13374;SDS011;6756;51.354;15.754;2022-09-09T16:39:49;1.47;;;0.70;;
13374;SDS011;6756;51.354;15.754;2022-09-09T16:43:59;2.07;;;0.90;;
13374;SDS011;6756;51.354;15.754;2022-09-09T16:48:02;1.40;;;0.77;;
13374;SDS011;6756;51.354;15.754;2022-09-09T16:52:03;4.43;;;1.77;;
13374;SDS011;6756;51.354;15.754;2022-09-09T16:56:05;2.93;;;1.10;;
13374;SDS011;6756;51.354;15.754;2022-09-09T17:00:07;3.63;;;1.60;;
13374;SDS011;6756;51.354;15.754;2022-09-09T17:04:15;4.60;;;2.00;;
13374;SDS011;6756;51.354;15.754;2022-09-09T17:08:20;1.33;;;0.80;;
13374;SDS011;6756;51.354;15.754;2022-09-09T17:12:21;0.90;;;0.80;;
13374;SDS011;6756;51.354;15.754;2022-09-09T17:16:23;3.27;;;0.87;;
13374;SDS011;6756;51.354;15.754;2022-09-09T17:20:27;12.00;;;1.37;;
13374;SDS011;6756;51.354;15.754;2022-09-09T17:24:28;3.23;;;0.90;;
13374;SDS011;6756;51.354;15.754;2022-09-09T17:28:29;20.03;;;6.20;;
13374;SDS011;6756;51.354;15.754;2022-09-09T17:32:31;6.53;;;2.90;;
13374;SDS011;6756;51.354;15.754;2022-09-09T17:36:33;3.77;;;1.50;;
13374;SDS011;6756;51.354;15.754;2022-09-09T17:40:36;2.97;;;1.40;;
13374;SDS011;6756;51.354;15.754;2022-09-09T17:44:37;2.47;;;1.13;;
13374;SDS011;6756;51.354;15.754;2022-09-09T17:48:39;2.30;;;0.93;;
13374;SDS011;6756;51.354;15.754;2022-09-09T17:52:40;2.00;;;1.10;;
13374;SDS011;6756;51.354;15.754;2022-09-09T17:56:41;2.20;;;1.27;;
13374;SDS011;6756;51.354;15.754;2022-09-09T18:00:45;6.07;;;1.03;;
13374;SDS011;6756;51.354;15.754;2022-09-09T18:04:50;4.23;;;1.30;;
13374;SDS011;6756;51.354;15.754;2022-09-09T18:08:52;4.13;;;1.27;;
13374;SDS011;6756;51.354;15.754;2022-09-09T18:12:55;2.10;;;1.10;;
13374;SDS011;6756;51.354;15.754;2022-09-09T18:16:57;2.43;;;1.20;;
13374;SDS011;6756;51.354;15.754;2022-09-09T18:21:00;3.23;;;1.50;;
13374;SDS011;6756;51.354;15.754;2022-09-09T18:25:06;3.97;;;1.60;;
13374;SDS011;6756;51.354;15.754;2022-09-09T18:29:09;6.73;;;1.33;;
13374;SDS011;6756;51.354;15.754;2022-09-09T18:33:13;1.30;;;1.00;;
13374;SDS011;6756;51.354;15.754;2022-09-09T18:37:14;1.47;;;1.03;;
13374;SDS011;6756;51.354;15.754;2022-09-09T18:41:20;2.13;;;1.23;;
13374;SDS011;6756;51.354;15.754;2022-09-09T18:45:22;2.47;;;1.40;;
13374;SDS011;6756;51.354;15.754;2022-09-09T18:49:23;1.73;;;1.43;;
13374;SDS011;6756;51.354;15.754;2022-09-09T18:53:26;1.57;;;1.20;;
13374;SDS011;6756;51.354;15.754;2022-09-09T18:57:27;1.63;;;0.80;;
13374;SDS011;6756;51.354;15.754;2022-09-09T19:01:28;1.67;;;0.90;;
13374;SDS011;6756;51.354;15.754;2022-09-09T19:05:29;1.30;;;1.00;;
13374;SDS011;6756;51.354;15.754;2022-09-09T19:09:31;1.53;;;1.13;;
13374;SDS011;6756;51.354;15.754;2022-09-09T19:13:33;1.40;;;1.20;;
13374;SDS011;6756;51.354;15.754;2022-09-09T19:17:36;1.80;;;1.30;;
13374;SDS011;6756;51.354;15.754;2022-09-09T19:21:37;2.17;;;1.67;;
13374;SDS011;6756;51.354;15.754;2022-09-09T19:25:44;3.27;;;1.33;;
13374;SDS011;6756;51.354;15.754;2022-09-09T19:29:45;4.73;;;2.27;;
13374;SDS011;6756;51.354;15.754;2022-09-09T19:33:47;2.13;;;1.90;;
13374;SDS011;6756;51.354;15.754;2022-09-09T19:37:49;1.90;;;1.70;;
13374;SDS011;6756;51.354;15.754;2022-09-09T19:41:51;2.33;;;1.80;;
13374;SDS011;6756;51.354;15.754;2022-09-09T19:45:57;2.47;;;1.60;;
13374;SDS011;6756;51.354;15.754;2022-09-09T19:50:03;2.83;;;1.47;;
13374;SDS011;6756;51.354;15.754;2022-09-09T19:54:07;2.07;;;1.53;;
13374;SDS011;6756;51.354;15.754;2022-09-09T19:58:09;1.23;;;1.13;;
13374;SDS011;6756;51.354;15.754;2022-09-09T20:02:12;1.70;;;1.50;;
13374;SDS011;6756;51.354;15.754;2022-09-09T20:06:16;3.10;;;1.60;;
13374;SDS011;6756;51.354;15.754;2022-09-09T20:10:20;1.73;;;1.30;;
13374;SDS011;6756;51.354;15.754;2022-09-09T20:14:22;1.90;;;1.40;;
13374;SDS011;6756;51.354;15.754;2022-09-09T20:18:25;2.37;;;1.40;;
13374;SDS011;6756;51.354;15.754;2022-09-09T20:22:26;3.33;;;1.53;;
13374;SDS011;6756;51.354;15.754;2022-09-09T20:26:28;5.50;;;1.90;;
13374;SDS011;6756;51.354;15.754;2022-09-09T20:30:35;2.97;;;1.93;;
13374;SDS011;6756;51.354;15.754;2022-09-09T20:34:37;2.33;;;1.43;;
13374;SDS011;6756;51.354;15.754;2022-09-09T20:38:57;1.53;;;1.33;;
13374;SDS011;6756;51.354;15.754;2022-09-09T20:42:59;4.20;;;2.30;;
13374;SDS011;6756;51.354;15.754;2022-09-09T20:47:00;4.60;;;2.80;;
13374;SDS011;6756;51.354;15.754;2022-09-09T20:51:05;5.30;;;2.83;;
13374;SDS011;6756;51.354;15.754;2022-09-09T20:55:08;3.43;;;2.37;;
13374;SDS011;6756;51.354;15.754;2022-09-09T20:59:14;2.83;;;2.10;;
13374;SDS011;6756;51.354;15.754;2022-09-09T21:03:19;3.20;;;1.90;;
13374;SDS011;6756;51.354;15.754;2022-09-09T21:07:20;3.23;;;1.90;;
13374;SDS011;6756;51.354;15.754;2022-09-09T21:11:21;2.53;;;1.73;;
13374;SDS011;6756;51.354;15.754;2022-09-09T21:15:23;1.87;;;1.37;;
13374;SDS011;6756;51.354;15.754;2022-09-09T21:19:23;4.37;;;2.00;;
13374;SDS011;6756;51.354;15.754;2022-09-09T21:23:24;2.73;;;1.80;;
13374;SDS011;6756;51.354;15.754;2022-09-09T21:27:26;1.70;;;1.60;;
13374;SDS011;6756;51.354;15.754;2022-09-09T21:31:28;2.17;;;1.50;;
13374;SDS011;6756;51.354;15.754;2022-09-09T21:35:33;3.23;;;1.67;;
13374;SDS011;6756;51.354;15.754;2022-09-09T21:39:35;3.13;;;2.00;;
13374;SDS011;6756;51.354;15.754;2022-09-09T21:43:35;5.67;;;2.50;;
13374;SDS011;6756;51.354;15.754;2022-09-09T21:47:36;3.10;;;2.60;;
13374;SDS011;6756;51.354;15.754;2022-09-09T21:51:37;2.73;;;2.00;;
13374;SDS011;6756;51.354;15.754;2022-09-09T21:55:38;2.47;;;1.90;;
13374;SDS011;6756;51.354;15.754;2022-09-09T21:59:40;2.33;;;1.53;;
13374;SDS011;6756;51.354;15.754;2022-09-09T22:03:41;1.70;;;1.50;;
13374;SDS011;6756;51.354;15.754;2022-09-09T22:07:43;2.47;;;1.63;;
13374;SDS011;6756;51.354;15.754;2022-09-09T22:11:44;2.33;;;1.37;;
13374;SDS011;6756;51.354;15.754;2022-09-09T22:15:47;2.17;;;1.60;;
13374;SDS011;6756;51.354;15.754;2022-09-09T22:19:49;1.83;;;1.30;;
13374;SDS011;6756;51.354;15.754;2022-09-09T22:23:51;2.13;;;1.57;;
13374;SDS011;6756;51.354;15.754;2022-09-09T22:28:03;2.40;;;1.63;;
13374;SDS011;6756;51.354;15.754;2022-09-09T22:32:05;1.97;;;1.53;;
13374;SDS011;6756;51.354;15.754;2022-09-09T22:36:06;2.50;;;1.40;;
13374;SDS011;6756;51.354;15.754;2022-09-09T22:40:07;3.47;;;1.60;;
13374;SDS011;6756;51.354;15.754;2022-09-09T22:44:09;4.87;;;1.93;;
13374;SDS011;6756;51.354;15.754;2022-09-09T22:48:10;2.20;;;2.00;;
13374;SDS011;6756;51.354;15.754;2022-09-09T22:52:12;2.50;;;1.87;;
13374;SDS011;6756;51.354;15.754;2022-09-09T22:56:15;1.97;;;1.50;;
13374;SDS011;6756;51.354;15.754;2022-09-09T23:00:17;3.30;;;2.30;;
13374;SDS011;6756;51.354;15.754;2022-09-09T23:04:18;3.20;;;1.80;;
13374;SDS011;6756;51.354;15.754;2022-09-09T23:08:22;2.80;;;2.00;;
13374;SDS011;6756;51.354;15.754;2022-09-09T23:12:32;4.90;;;1.97;;
13374;SDS011;6756;51.354;15.754;2022-09-09T23:16:34;2.77;;;1.83;;
13374;SDS011;6756;51.354;15.754;2022-09-09T23:20:39;2.63;;;1.83;;
13374;SDS011;6756;51.354;15.754;2022-09-09T23:24:40;5.23;;;1.77;;
13374;SDS011;6756;51.354;15.754;2022-09-09T23:28:42;3.13;;;1.53;;
13374;SDS011;6756;51.354;15.754;2022-09-09T23:32:42;2.20;;;2.00;;
13374;SDS011;6756;51.354;15.754;2022-09-09T23:36:46;3.77;;;1.80;;
13374;SDS011;6756;51.354;15.754;2022-09-09T23:40:46;4.43;;;1.80;;
13374;SDS011;6756;51.354;15.754;2022-09-09T23:44:47;2.77;;;1.87;;
13374;SDS011;6756;51.354;15.754;2022-09-09T23:48:49;2.30;;;1.37;;
13374;SDS011;6756;51.354;15.754;2022-09-09T23:52:50;3.60;;;1.87;;
13374;SDS011;6756;51.354;15.754;2022-09-09T23:56:52;3.40;;;1.50;;
